Time;durP1;ratioP1;P1;durP2;ratioP2;P2;SDS_P1;SDS_P2;PMS_P1;PMS_P2;Temp;Humidity;BMP_temperature;BMP_pressure;BME280_temperature;BME280_humidity;BME280_pressure;Samples;Min_cycle;Max_cycle;Signal;HPM_P1;HPM_P2
2021/05/01 00:01:54;;;;;;;35.80;27.87;;;;;;;9.58;85.84;96007.75;5075298;28;20259;-63
2021/05/01 00:04:19;;;;;;;29.03;24.43;;;;;;;9.76;85.32;95997.94;5075142;28;20172;-63
2021/05/01 00:06:45;;;;;;;33.33;26.40;;;;;;;9.88;84.70;96005.78;5073845;28;20629;-63
2021/05/01 00:09:10;;;;;;;30.80;25.40;;;;;;;9.97;84.43;96010.47;5071674;28;20274;-67
2021/05/01 00:11:36;;;;;;;31.50;25.07;;;;;;;10.07;83.92;95999.38;5055781;28;20202;-67
2021/05/01 00:14:02;;;;;;;31.60;26.30;;;;;;;10.05;83.50;96015.38;5070976;28;20180;-68
2021/05/01 00:16:28;;;;;;;31.50;25.83;;;;;;;9.81;84.20;96013.78;5065830;28;20169;-67
2021/05/01 00:18:54;;;;;;;32.33;26.83;;;;;;;9.76;84.74;96015.50;5074375;28;20461;-67
2021/05/01 00:21:20;;;;;;;32.23;26.07;;;;;;;9.82;84.62;96018.00;5073368;28;20204;-67
2021/05/01 00:23:45;;;;;;;32.90;26.47;;;;;;;9.90;84.53;96009.78;5073959;28;20423;-66
2021/05/01 00:26:11;;;;;;;30.27;25.70;;;;;;;10.08;83.97;96009.66;5072719;28;20179;-63
2021/05/01 00:28:40;;;;;;;29.80;26.57;;;;;;;10.05;84.04;96002.25;5074256;28;20335;-63
2021/05/01 00:31:06;;;;;;;31.03;25.27;;;;;;;10.06;84.06;96001.22;5074746;28;20204;-63
2021/05/01 00:33:32;;;;;;;32.70;26.90;;;;;;;9.90;84.75;95996.66;5074800;28;20407;-67
2021/05/01 00:35:57;;;;;;;31.10;26.33;;;;;;;9.98;85.21;95992.91;5064129;28;20430;-64
2021/05/01 00:38:23;;;;;;;31.90;27.17;;;;;;;10.04;85.16;95998.00;5054239;28;20195;-67
2021/05/01 00:40:48;;;;;;;30.80;26.27;;;;;;;9.93;84.68;95995.41;5063745;28;20210;-67
2021/05/01 00:43:14;;;;;;;30.37;24.90;;;;;;;9.97;84.65;96002.59;5072807;28;20176;-64
2021/05/01 00:45:39;;;;;;;32.77;27.60;;;;;;;10.15;83.61;95991.97;5061530;28;20173;-68
2021/05/01 00:48:04;;;;;;;29.33;25.70;;;;;;;10.02;84.48;95984.31;5073875;28;20207;-64
2021/05/01 00:50:30;;;;;;;31.10;26.53;;;;;;;9.94;84.69;95981.25;5058670;28;20558;-64
2021/05/01 00:52:56;;;;;;;29.93;25.23;;;;;;;10.13;83.78;95991.41;5071663;28;20182;-68
2021/05/01 00:55:21;;;;;;;30.83;25.80;;;;;;;10.29;83.01;95982.03;5072516;28;20187;-64
2021/05/01 00:57:47;;;;;;;30.03;24.87;;;;;;;10.36;82.68;95982.69;5063383;28;20182;-68
2021/05/01 01:03:04;;;;;;;29.53;25.00;;;;;;;10.31;82.00;95985.19;5053151;28;20190;-68
2021/05/01 01:05:30;;;;;;;27.17;24.17;;;;;;;10.02;82.95;95986.94;5060404;28;20423;-68
2021/05/01 01:07:55;;;;;;;29.17;24.40;;;;;;;9.76;83.90;95991.88;5071269;28;20180;-68
2021/05/01 01:10:20;;;;;;;29.00;24.20;;;;;;;9.65;84.86;95996.13;5054124;28;20597;-64
2021/05/01 01:12:46;;;;;;;28.40;24.70;;;;;;;9.66;84.32;96002.16;5054843;28;20174;-64
2021/05/01 01:15:25;;;;;;;31.00;24.30;;;;;;;9.52;85.33;95998.97;5064939;28;20181;-64
2021/05/01 01:17:50;;;;;;;29.80;25.03;;;;;;;9.44;85.17;95993.28;5069401;28;20206;-68
2021/05/01 01:20:16;;;;;;;34.87;26.83;;;;;;;9.50;85.34;95981.84;5073154;28;20431;-68
2021/05/01 01:22:41;;;;;;;36.57;27.90;;;;;;;9.69;84.56;95986.78;5059801;28;20201;-68
2021/05/01 01:25:07;;;;;;;34.40;26.77;;;;;;;9.77;84.39;95985.59;5053639;28;20161;-66
2021/05/01 01:27:33;;;;;;;37.20;28.77;;;;;;;9.88;83.54;95971.69;5053889;28;20234;-68
2021/05/01 01:29:59;;;;;;;38.37;28.10;;;;;;;9.96;83.63;95984.47;5053623;28;20436;-64
2021/05/01 01:32:24;;;;;;;35.13;26.90;;;;;;;9.84;83.94;95986.28;5052280;28;20241;-61
2021/05/01 01:34:49;;;;;;;35.53;28.00;;;;;;;9.90;84.41;95986.19;5064636;28;20168;-62
2021/05/01 01:37:15;;;;;;;35.70;27.30;;;;;;;9.85;84.27;95987.88;5073271;28;20203;-65
2021/05/01 01:39:41;;;;;;;37.80;28.47;;;;;;;9.81;85.30;95977.06;5058581;28;20196;-65
2021/05/01 01:42:06;;;;;;;34.57;27.33;;;;;;;9.80;85.67;95983.31;5062041;28;20259;-61
2021/05/01 01:44:32;;;;;;;37.50;28.20;;;;;;;9.92;84.79;95980.69;5058615;28;20426;-66
2021/05/01 01:46:57;;;;;;;37.43;30.90;;;;;;;9.89;84.80;95989.81;5059814;28;20627;-62
2021/05/01 01:49:23;;;;;;;37.30;28.47;;;;;;;9.98;84.70;95998.16;5053115;28;20208;-66
2021/05/01 01:51:48;;;;;;;38.57;28.37;;;;;;;9.92;84.18;95997.25;5053594;28;20181;-62
2021/05/01 01:54:14;;;;;;;38.10;29.30;;;;;;;10.02;83.96;96000.06;5060846;28;20183;-65
2021/05/01 01:56:40;;;;;;;39.83;31.80;;;;;;;9.94;84.48;96002.25;5071752;28;20262;-65
2021/05/01 01:59:06;;;;;;;37.87;30.50;;;;;;;9.76;84.04;96000.56;5072873;28;20197;-62
2021/05/01 02:01:35;;;;;;;37.90;29.20;;;;;;;9.81;84.70;95992.81;5072501;28;20962;-62
2021/05/01 02:04:00;;;;;;;38.00;29.60;;;;;;;9.92;84.43;95981.50;5062780;28;20421;-61
2021/05/01 02:06:26;;;;;;;38.57;29.70;;;;;;;9.72;85.61;95982.88;5053269;28;20444;-66
2021/05/01 02:08:52;;;;;;;36.23;27.70;;;;;;;9.82;85.45;95985.75;5056172;28;20568;-61
2021/05/01 02:11:17;;;;;;;38.20;28.37;;;;;;;9.74;85.79;95984.25;5072833;28;20172;-65
2021/05/01 02:13:43;;;;;;;38.63;29.57;;;;;;;10.00;84.91;95982.97;5070596;28;20440;-66
2021/05/01 02:16:08;;;;;;;40.47;29.60;;;;;;;10.07;84.71;95991.50;5061739;28;20170;-66
2021/05/01 02:18:34;;;;;;;39.57;29.43;;;;;;;10.18;84.40;95983.63;5072849;28;20635;-66
2021/05/01 02:21:00;;;;;;;40.23;29.90;;;;;;;10.28;84.07;95986.47;5066110;28;20207;-65
2021/05/01 02:23:25;;;;;;;39.73;29.00;;;;;;;10.31;84.28;95983.38;5053174;28;20207;-62
2021/05/01 02:25:51;;;;;;;37.47;28.47;;;;;;;10.32;84.26;95978.94;5053211;28;20513;-65
2021/05/01 02:28:18;;;;;;;40.00;30.20;;;;;;;10.36;84.40;95972.19;5052669;28;20232;-65
2021/05/01 02:30:44;;;;;;;38.10;28.57;;;;;;;10.19;84.67;95974.75;5054591;28;20660;-63
2021/05/01 02:33:09;;;;;;;39.73;29.80;;;;;;;10.28;84.59;95962.84;5058676;28;20422;-64
2021/05/01 02:35:38;;;;;;;36.10;28.23;;;;;;;10.00;86.29;95961.97;5060330;28;20425;-63
2021/05/01 02:38:03;;;;;;;36.37;27.83;;;;;;;10.05;86.26;95965.50;5076541;28;20733;-67
2021/05/01 02:40:31;;;;;;;35.40;26.97;;;;;;;9.88;88.07;95963.81;5076560;28;20440;-68
2021/05/01 02:43:01;;;;;;;37.93;29.20;;;;;;;10.15;86.06;95957.84;5076831;28;20534;-68
2021/05/01 02:45:27;;;;;;;35.23;28.60;;;;;;;10.13;86.62;95954.66;5075922;28;20428;-64
2021/05/01 02:47:52;;;;;;;36.70;28.70;;;;;;;9.91;87.19;95958.13;5076357;28;20961;-68
2021/05/01 02:50:19;;;;;;;34.53;27.10;;;;;;;10.17;86.27;95953.16;5076403;28;20283;-68
2021/05/01 02:52:44;;;;;;;40.50;30.40;;;;;;;10.38;85.28;95948.31;5076588;28;20175;-67
2021/05/01 02:55:10;;;;;;;37.60;29.50;;;;;;;10.42;85.33;95952.06;5076651;28;20465;-68
2021/05/01 02:57:36;;;;;;;38.60;30.20;;;;;;;10.34;84.76;95940.88;5060101;28;20174;-68
2021/05/01 03:00:08;;;;;;;35.80;28.80;;;;;;;10.24;85.12;95938.06;5064622;28;20448;-64
2021/05/01 03:02:34;;;;;;;37.77;30.70;;;;;;;10.40;84.69;95927.88;5076501;28;20209;-64
2021/05/01 03:05:00;;;;;;;41.00;30.37;;;;;;;10.44;84.01;95928.97;5076467;28;20749;-68
2021/05/01 03:07:26;;;;;;;40.50;30.27;;;;;;;10.48;84.12;95922.22;5075988;28;20218;-68
2021/05/01 03:09:51;;;;;;;40.20;31.37;;;;;;;10.53;83.84;95925.72;5076017;28;20897;-68
2021/05/01 03:12:17;;;;;;;39.93;30.40;;;;;;;10.51;83.75;95919.16;5076336;28;20538;-64
2021/05/01 03:14:44;;;;;;;40.67;31.00;;;;;;;10.39;84.22;95906.06;5072109;28;20290;-67
2021/05/01 03:17:10;;;;;;;35.63;30.07;;;;;;;10.18;86.26;95904.09;5055791;28;20177;-64
2021/05/01 03:19:35;;;;;;;37.80;30.27;;;;;;;10.19;86.06;95909.09;5071617;28;20442;-64
2021/05/01 03:22:00;;;;;;;39.77;30.60;;;;;;;10.24;86.02;95909.19;5074505;28;20204;-65
2021/05/01 03:24:26;;;;;;;42.10;33.97;;;;;;;10.38;85.10;95919.44;5075970;28;20184;-64
2021/05/01 03:26:51;;;;;;;41.07;31.27;;;;;;;10.11;85.74;95913.91;5074197;28;20167;-68
2021/05/01 03:29:17;;;;;;;43.90;33.50;;;;;;;10.20;85.80;95920.38;5057938;28;20198;-68
2021/05/01 03:31:42;;;;;;;40.00;31.47;;;;;;;10.24;85.62;95903.94;5055932;28;20198;-64
2021/05/01 03:34:07;;;;;;;45.10;34.07;;;;;;;10.40;85.14;95899.75;5068294;28;20182;-68
2021/05/01 03:36:33;;;;;;;42.50;33.10;;;;;;;10.20;84.75;95908.06;5075765;28;20551;-68
2021/05/01 03:38:58;;;;;;;47.80;34.57;;;;;;;10.22;85.46;95913.06;5075305;28;20247;-64
2021/05/01 03:41:24;;;;;;;43.13;33.53;;;;;;;10.28;84.87;95923.47;5073768;28;20192;-63
2021/05/01 03:43:49;;;;;;;42.40;32.57;;;;;;;10.38;84.10;95919.44;5075957;28;20177;-68
2021/05/01 03:46:14;;;;;;;41.97;32.77;;;;;;;10.43;84.01;95915.06;5075355;28;20178;-68
2021/05/01 03:48:40;;;;;;;40.73;31.53;;;;;;;10.37;84.40;95908.13;5074253;28;20201;-68
2021/05/01 03:51:06;;;;;;;40.93;31.37;;;;;;;10.26;84.99;95909.75;5058937;28;20182;-64
2021/05/01 03:53:31;;;;;;;41.87;32.50;;;;;;;10.41;84.64;95890.84;5055347;28;20170;-64
2021/05/01 03:55:57;;;;;;;38.60;29.00;;;;;;;10.57;82.78;95897.97;5060091;28;20170;-64
2021/05/01 03:58:23;;;;;;;41.13;31.07;;;;;;;10.58;82.66;95896.91;5075049;28;20194;-65
2021/05/01 04:00:48;;;;;;;40.30;30.40;;;;;;;10.69;82.06;95909.19;5075341;28;20476;-64
2021/05/01 04:03:14;;;;;;;39.10;30.57;;;;;;;10.70;81.31;95902.13;5073534;28;20550;-64
2021/05/01 04:05:39;;;;;;;42.93;31.50;;;;;;;10.68;81.75;95912.88;5074382;28;20178;-68
2021/05/01 04:08:04;;;;;;;40.47;30.07;;;;;;;10.54;81.98;95923.91;5065813;28;20704;-64
2021/05/01 04:10:30;;;;;;;38.13;29.13;;;;;;;10.62;82.27;95928.78;5056187;28;20198;-68
2021/05/01 04:12:55;;;;;;;39.33;29.33;;;;;;;10.57;82.99;95923.44;5055068;28;20194;-68
2021/05/01 04:15:21;;;;;;;40.33;29.97;;;;;;;10.56;82.75;95922.66;5055103;28;20181;-64
2021/05/01 04:17:49;;;;;;;43.23;30.93;;;;;;;10.49;83.10;95916.72;5054666;28;20170;-64
2021/05/01 04:20:15;;;;;;;43.17;31.60;;;;;;;10.24;84.78;95926.75;5053648;28;20217;-64
2021/05/01 04:22:40;;;;;;;41.70;31.73;;;;;;;10.22;84.82;95921.75;5055008;28;20491;-68
2021/05/01 04:25:06;;;;;;;46.13;34.43;;;;;;;10.42;83.95;95925.81;5059732;28;20173;-64
2021/05/01 04:27:32;;;;;;;44.37;33.60;;;;;;;10.32;84.35;95927.22;5053123;28;20179;-64
2021/05/01 04:29:57;;;;;;;40.70;32.23;;;;;;;10.26;84.85;95928.13;5054710;28;20462;-68
2021/05/01 04:32:24;;;;;;;43.10;33.40;;;;;;;10.42;84.39;95928.44;5054651;28;20715;-68
2021/05/01 04:34:49;;;;;;;39.47;32.10;;;;;;;10.48;84.26;95927.47;5054706;28;20653;-64
2021/05/01 04:37:15;;;;;;;44.90;33.43;;;;;;;10.60;83.17;95930.88;5053994;28;20406;-63
2021/05/01 04:39:40;;;;;;;39.13;31.20;;;;;;;10.34;83.53;95919.88;5053151;28;20669;-64
2021/05/01 04:42:07;;;;;;;43.37;32.53;;;;;;;10.35;83.90;95924.09;5054437;28;20195;-68
2021/05/01 04:44:32;;;;;;;44.17;32.87;;;;;;;10.36;84.27;95920.44;5054779;28;20582;-68
2021/05/01 04:46:57;;;;;;;36.07;28.90;;;;;;;10.10;85.43;95917.56;5054150;28;20489;-64
2021/05/01 04:49:23;;;;;;;36.53;29.00;;;;;;;10.36;84.23;95922.28;5054074;28;20720;-65
2021/05/01 04:51:48;;;;;;;35.67;28.53;;;;;;;10.31;84.34;95917.72;5055358;28;20186;-66
2021/05/01 04:54:14;;;;;;;35.23;28.03;;;;;;;10.32;84.77;95914.09;5065261;28;20202;-68
2021/05/01 04:56:39;;;;;;;40.87;31.03;;;;;;;10.01;86.58;95919.75;5059002;28;20250;-68
2021/05/01 04:59:05;;;;;;;40.77;31.70;;;;;;;10.13;86.21;95907.41;5053118;28;20196;-64
2021/05/01 05:01:33;;;;;;;41.07;32.60;;;;;;;10.25;85.90;95910.78;5054742;28;20194;-68
2021/05/01 05:03:58;;;;;;;45.20;33.50;;;;;;;10.44;85.10;95918.47;5054216;28;20391;-64
2021/05/01 05:06:24;;;;;;;45.30;34.00;;;;;;;10.57;84.43;95921.59;5055004;28;20455;-63
2021/05/01 05:08:49;;;;;;;44.17;32.73;;;;;;;10.50;85.11;95914.91;5053676;28;20199;-64
2021/05/01 05:11:15;;;;;;;47.10;35.10;;;;;;;10.47;85.34;95910.94;5054115;28;20162;-64
2021/05/01 05:13:40;;;;;;;40.73;32.20;;;;;;;10.46;85.66;95911.16;5054188;28;20171;-69
2021/05/01 05:16:05;;;;;;;46.30;35.40;;;;;;;10.43;85.62;95904.56;5054056;28;20198;-69
2021/05/01 05:18:31;;;;;;;44.80;35.27;;;;;;;10.34;86.58;95911.22;5053323;28;20649;-64
2021/05/01 05:20:58;;;;;;;50.43;35.20;;;;;;;10.55;84.88;95917.63;5054570;28;20273;-67
2021/05/01 05:23:23;;;;;;;47.03;34.93;;;;;;;10.51;85.10;95921.78;5053713;28;20179;-65
2021/05/01 05:25:49;;;;;;;48.47;36.10;;;;;;;10.60;84.78;95929.00;5053899;28;20731;-68
2021/05/01 05:28:14;;;;;;;50.57;35.67;;;;;;;10.71;83.97;95924.72;5053158;28;20253;-67
2021/05/01 05:30:39;;;;;;;41.00;32.83;;;;;;;10.76;83.40;95919.56;5052191;28;20196;-67
2021/05/01 05:33:05;;;;;;;44.80;33.80;;;;;;;10.49;84.80;95914.09;5053576;28;20166;-68
2021/05/01 05:35:30;;;;;;;46.00;33.87;;;;;;;10.40;85.95;95909.47;5070725;28;20184;-67
2021/05/01 05:37:56;;;;;;;39.87;31.60;;;;;;;10.33;86.06;95901.72;5072426;28;20203;-67
2021/05/01 05:40:21;;;;;;;41.47;33.27;;;;;;;10.55;85.29;95899.22;5073132;28;20228;-67
2021/05/01 05:42:49;;;;;;;43.60;32.03;;;;;;;10.51;85.19;95903.38;5073548;28;20667;-64
2021/05/01 05:45:23;;;;;;;41.00;30.00;;;;;;;10.44;85.83;95900.88;5073613;28;20169;-67
2021/05/01 05:47:49;;;;;;;41.90;32.13;;;;;;;10.41;86.26;95892.69;5071511;28;20419;-64
2021/05/01 05:50:14;;;;;;;39.90;30.97;;;;;;;10.44;85.96;95892.19;5073184;28;20455;-64
2021/05/01 05:52:40;;;;;;;39.03;29.57;;;;;;;10.17;86.48;95899.84;5072705;28;20181;-64
2021/05/01 05:55:05;;;;;;;42.40;32.60;;;;;;;10.38;86.07;95895.78;5073611;28;20169;-64
2021/05/01 05:57:32;;;;;;;39.97;30.57;;;;;;;10.52;84.43;95910.22;5073161;28;20174;-64
2021/05/01 05:59:57;;;;;;;46.87;33.00;;;;;;;10.55;85.30;95907.91;5073299;28;20185;-63
2021/05/01 06:02:23;;;;;;;44.27;33.03;;;;;;;10.42;85.49;95907.41;5066472;28;20449;-67
2021/05/01 06:05:15;;;;;;;43.63;30.80;;;;;;;10.52;84.64;95904.97;5053428;28;20167;-64
2021/05/01 06:07:44;;;;;;;44.40;33.73;;;;;;;10.47;85.07;95907.50;5057368;28;20428;-67
2021/05/01 06:10:11;;;;;;;45.90;33.90;;;;;;;10.63;84.52;95904.91;5063146;28;20451;-67
2021/05/01 06:12:37;;;;;;;40.93;31.13;;;;;;;10.44;84.91;95905.34;5058380;28;20559;-64
2021/05/01 06:15:10;;;;;;;41.03;30.60;;;;;;;10.57;84.79;95913.72;5057068;28;20496;-64
2021/05/01 06:17:37;;;;;;;43.27;32.17;;;;;;;10.42;85.74;95904.78;5076449;28;20944;-63
2021/05/01 06:20:04;;;;;;;40.93;32.73;;;;;;;10.38;86.38;95902.63;5077207;28;20429;-63
2021/05/01 06:22:30;;;;;;;42.43;33.30;;;;;;;10.38;86.31;95900.00;5077109;28;20800;-64
2021/05/01 06:24:56;;;;;;;42.33;34.20;;;;;;;10.43;85.76;95909.81;5075004;28;20416;-63
2021/05/01 06:27:22;;;;;;;44.60;32.87;;;;;;;10.54;85.04;95903.72;5076866;28;20659;-68
2021/05/01 06:29:49;;;;;;;43.90;34.10;;;;;;;10.64;84.68;95911.75;5076473;28;20573;-64
2021/05/01 06:32:16;;;;;;;39.23;31.87;;;;;;;10.81;83.80;95917.03;5057068;28;20169;-64
2021/05/01 06:34:52;;;;;;;37.50;30.70;;;;;;;10.68;83.67;95914.69;5074804;28;20469;-68
2021/05/01 06:37:19;;;;;;;40.00;30.27;;;;;;;10.54;84.13;95914.22;5076599;28;20418;-68
2021/05/01 06:39:47;;;;;;;39.77;31.67;;;;;;;10.69;84.05;95906.56;5075565;28;20869;-68
2021/05/01 06:42:33;;;;;;;41.53;32.10;;;;;;;10.69;84.17;95905.78;5076626;28;21027;-68
2021/05/01 06:45:07;;;;;;;38.90;31.83;;;;;;;10.56;85.61;95904.28;5065698;28;20921;-64
2021/05/01 06:47:36;;;;;;;37.10;29.70;;;;;;;10.65;84.51;95925.69;5067554;28;20427;-68
2021/05/01 06:50:10;;;;;;;36.87;30.73;;;;;;;10.89;83.24;95922.69;5076360;28;20447;-64
2021/05/01 06:52:41;;;;;;;36.67;29.87;;;;;;;10.84;82.98;95919.97;5076474;28;20407;-64
2021/05/01 06:55:08;;;;;;;39.27;31.10;;;;;;;10.88;83.09;95926.34;5060608;28;20421;-68
2021/05/01 06:57:36;;;;;;;38.83;30.40;;;;;;;10.57;84.08;95928.69;5056105;28;20756;-64
2021/05/01 07:00:06;;;;;;;35.90;29.70;;;;;;;10.69;83.94;95924.19;5069327;28;20817;-69
2021/05/01 07:02:33;;;;;;;39.00;31.53;;;;;;;10.63;83.76;95925.94;5075563;28;20451;-68
2021/05/01 07:04:59;;;;;;;36.30;31.10;;;;;;;10.76;83.70;95919.56;5076427;28;20515;-68
2021/05/01 07:07:27;;;;;;;36.17;29.13;;;;;;;10.74;83.10;95916.38;5075818;28;20412;-68
2021/05/01 07:09:53;;;;;;;37.30;28.80;;;;;;;10.72;84.39;95910.56;5076201;28;20419;-64
2021/05/01 07:12:23;;;;;;;35.10;29.40;;;;;;;10.72;84.04;95907.94;5072392;28;20464;-64
2021/05/01 07:14:49;;;;;;;35.00;29.10;;;;;;;10.58;84.67;95915.31;5056311;28;20171;-68
2021/05/01 07:17:16;;;;;;;33.30;28.17;;;;;;;10.86;83.37;95912.66;5055823;28;20417;-66
2021/05/01 07:19:43;;;;;;;31.80;27.63;;;;;;;10.73;83.52;95905.06;5055962;28;20558;-62
2021/05/01 07:22:09;;;;;;;35.37;28.70;;;;;;;10.79;83.88;95895.44;5072852;28;20456;-66
2021/05/01 07:24:35;;;;;;;35.20;30.10;;;;;;;10.97;83.24;95905.72;5076055;28;20408;-67
2021/05/01 07:27:01;;;;;;;33.80;28.93;;;;;;;10.87;83.08;95892.44;5071477;28;20434;-62
2021/05/01 07:29:31;;;;;;;32.83;28.20;;;;;;;10.85;83.07;95891.88;5055964;28;20894;-61
2021/05/01 07:31:57;;;;;;;34.10;27.63;;;;;;;10.89;82.95;95885.06;5055846;28;20394;-62
2021/05/01 07:34:25;;;;;;;33.17;27.23;;;;;;;10.79;82.98;95887.56;5062237;28;20429;-62
2021/05/01 07:36:52;;;;;;;35.83;28.37;;;;;;;10.67;83.35;95903.38;5069216;28;20832;-63
2021/05/01 07:39:19;;;;;;;32.60;27.37;;;;;;;10.93;82.13;95909.84;5075463;28;20776;-62
2021/05/01 07:41:48;;;;;;;33.63;27.63;;;;;;;11.17;81.45;95914.72;5074003;28;20458;-66
2021/05/01 07:44:14;;;;;;;31.87;27.47;;;;;;;11.14;81.10;95903.91;5075585;28;20923;-63
2021/05/01 07:46:40;;;;;;;33.20;27.80;;;;;;;10.97;82.85;95888.13;5075527;28;20416;-66
2021/05/01 07:49:07;;;;;;;31.70;26.93;;;;;;;10.78;84.38;95880.72;5075113;28;20198;-66
2021/05/01 07:51:35;;;;;;;31.10;26.63;;;;;;;10.92;84.00;95879.38;5074611;28;20535;-66
2021/05/01 07:54:02;;;;;;;34.60;27.33;;;;;;;10.92;83.43;95892.50;5075562;28;20461;-62
2021/05/01 07:56:27;;;;;;;31.93;25.67;;;;;;;11.05;82.29;95894.81;5058409;28;20482;-68
2021/05/01 07:58:54;;;;;;;28.77;25.67;;;;;;;11.19;81.68;95894.25;5056064;28;20436;-67
2021/05/01 08:01:19;;;;;;;32.03;25.30;;;;;;;11.34;81.06;95904.97;5075140;28;20182;-62
2021/05/01 08:03:47;;;;;;;31.90;27.37;;;;;;;11.43;80.37;95900.13;5061747;28;20432;-67
2021/05/01 08:06:12;;;;;;;30.77;24.83;;;;;;;11.40;79.55;95897.97;5055252;28;20217;-61
2021/05/01 08:08:37;;;;;;;27.73;24.50;;;;;;;11.28;79.69;95898.06;5054862;28;20492;-62
2021/05/01 08:11:03;;;;;;;25.63;22.83;;;;;;;11.41;79.25;95899.56;5055309;28;20258;-62
2021/05/01 08:13:28;;;;;;;27.10;23.60;;;;;;;11.52;78.53;95897.88;5069132;28;20714;-62
2021/05/01 08:15:55;;;;;;;27.40;23.33;;;;;;;11.49;78.35;95909.66;5074945;28;20170;-61
2021/05/01 08:18:20;;;;;;;28.60;24.13;;;;;;;11.51;78.96;95904.97;5074556;28;20669;-61
2021/05/01 08:20:49;;;;;;;28.97;25.60;;;;;;;11.39;79.58;95912.16;5074784;28;20404;-62
2021/05/01 08:23:15;;;;;;;29.97;24.87;;;;;;;11.19;80.80;95904.78;5074945;28;20166;-62
2021/05/01 08:25:40;;;;;;;30.33;24.53;;;;;;;11.36;79.52;95899.47;5074037;28;20918;-68
2021/05/01 08:28:06;;;;;;;29.90;25.13;;;;;;;11.39;79.38;95899.78;5074378;28;20697;-67
2021/05/01 08:30:31;;;;;;;27.43;22.90;;;;;;;11.53;79.21;95896.81;5072829;28;20187;-67
2021/05/01 08:32:57;;;;;;;27.03;23.37;;;;;;;11.46;79.62;95894.38;5073240;28;20528;-63
2021/05/01 08:35:22;;;;;;;28.70;24.63;;;;;;;11.46;79.04;95901.47;5073978;28;20206;-68
2021/05/01 08:37:48;;;;;;;30.43;24.47;;;;;;;11.53;78.43;95907.34;5072879;28;20197;-62
2021/05/01 08:40:14;;;;;;;29.47;24.80;;;;;;;11.70;77.88;95908.13;5074535;28;20222;-61
2021/05/01 08:42:44;;;;;;;25.87;22.03;;;;;;;11.67;77.70;95913.91;5074493;28;20207;-62
2021/05/01 08:45:12;;;;;;;28.17;23.40;;;;;;;11.60;78.28;95916.66;5074331;28;20424;-62
2021/05/01 08:47:43;;;;;;;24.80;21.97;;;;;;;11.71;77.50;95920.25;5073991;28;20920;-68
2021/05/01 08:50:37;;;;;;;25.87;22.97;;;;;;;11.66;76.76;95915.72;5058880;28;20502;-68
2021/05/01 08:53:03;;;;;;;25.90;21.37;;;;;;;11.69;77.09;95915.22;5072437;28;20836;-62
2021/05/01 08:55:34;;;;;;;25.80;22.23;;;;;;;11.54;76.37;95919.47;5074162;28;20433;-62
2021/05/01 08:58:02;;;;;;;25.67;21.50;;;;;;;11.69;77.16;95911.78;5072636;28;20178;-68
2021/05/01 09:00:28;;;;;;;28.10;23.37;;;;;;;11.90;77.28;95911.03;5060159;28;20441;-62
2021/05/01 09:02:55;;;;;;;27.00;23.17;;;;;;;11.86;78.54;95912.56;5054164;28;20859;-61
2021/05/01 09:05:24;;;;;;;25.23;22.53;;;;;;;12.01;77.39;95907.50;5052914;28;20320;-68
2021/05/01 09:07:49;;;;;;;26.13;22.80;;;;;;;12.03;77.12;95914.09;5053550;28;20421;-68
2021/05/01 09:10:15;;;;;;;27.20;23.00;;;;;;;12.12;77.21;95907.34;5068265;28;20775;-68
2021/05/01 09:12:43;;;;;;;28.40;22.70;;;;;;;12.35;76.84;95901.81;5057958;28;20180;-68
2021/05/01 09:15:12;;;;;;;25.17;22.47;;;;;;;12.33;78.25;95906.53;5053985;28;20182;-69
2021/05/01 09:17:39;;;;;;;28.27;22.43;;;;;;;12.36;77.57;95903.41;5053246;28;20425;-61
2021/05/01 09:20:15;;;;;;;25.33;21.70;;;;;;;12.60;76.95;95901.28;5070485;28;20448;-62
2021/05/01 09:22:55;;;;;;;25.00;22.07;;;;;;;12.51;76.96;95904.59;5073946;28;20449;-68
2021/05/01 09:25:21;;;;;;;22.13;19.60;;;;;;;12.32;77.20;95904.94;5062799;28;20410;-62
2021/05/01 09:28:00;;;;;;;19.97;17.87;;;;;;;12.09;76.30;95901.78;5052117;28;20934;-62
2021/05/01 09:30:28;;;;;;;21.60;19.27;;;;;;;12.24;77.17;95901.94;5053715;28;20426;-69
2021/05/01 09:33:24;;;;;;;22.47;20.10;;;;;;;12.45;76.10;95909.00;5053584;28;20584;-62
2021/05/01 09:35:59;;;;;;;24.23;21.73;;;;;;;12.32;77.19;95912.03;5068311;28;20930;-68
2021/05/01 09:38:29;;;;;;;28.10;22.17;;;;;;;12.53;76.25;95905.16;5053085;28;20902;-68
2021/05/01 09:40:54;;;;;;;25.03;22.10;;;;;;;12.59;76.70;95897.03;5053597;28;20418;-63
2021/05/01 09:43:19;;;;;;;23.20;20.20;;;;;;;12.67;75.71;95899.22;5053383;28;20418;-68
2021/05/01 09:45:45;;;;;;;25.33;22.63;;;;;;;12.79;74.73;95896.44;5053126;28;20207;-69
2021/05/01 09:48:19;;;;;;;24.30;21.40;;;;;;;12.69;75.74;95901.59;5055381;28;20637;-69
2021/05/01 09:50:46;;;;;;;22.53;20.13;;;;;;;12.80;74.87;95895.38;5066383;28;20190;-63
2021/05/01 09:53:16;;;;;;;24.70;22.07;;;;;;;12.63;75.28;95890.22;5070226;28;20413;-63
2021/05/01 09:55:44;;;;;;;24.07;21.50;;;;;;;12.86;74.17;95884.66;5073355;28;20401;-69
2021/05/01 09:58:23;;;;;;;23.37;20.30;;;;;;;12.88;74.99;95885.16;5072593;28;20406;-61
2021/05/01 10:00:50;;;;;;;27.67;24.57;;;;;;;12.72;74.52;95880.03;5073427;28;20415;-61
2021/05/01 10:03:27;;;;;;;25.30;22.60;;;;;;;12.86;74.71;95878.56;5071604;28;20423;-61
2021/05/01 10:05:59;;;;;;;23.57;21.17;;;;;;;12.86;76.14;95884.66;5073489;28;20506;-61
2021/05/01 10:08:34;;;;;;;24.80;21.90;;;;;;;12.90;74.71;95872.53;5071007;28;20424;-62
2021/05/01 10:11:13;;;;;;;23.03;20.57;;;;;;;12.91;72.57;95873.34;5073225;28;20397;-62
2021/05/01 10:13:50;;;;;;;22.23;19.87;;;;;;;12.58;77.27;95881.47;5072326;28;20412;-68
2021/05/01 10:16:18;;;;;;;24.73;21.90;;;;;;;12.85;76.24;95879.59;5073374;28;20914;-68
2021/05/01 10:19:08;;;;;;;25.07;22.17;;;;;;;12.97;76.07;95880.25;5066253;28;20537;-68
2021/05/01 10:21:36;;;;;;;26.17;21.93;;;;;;;12.62;75.46;95879.94;5050033;28;20527;-62
2021/05/01 10:24:02;;;;;;;25.90;23.20;;;;;;;12.95;75.16;95887.63;5053056;28;20877;-68
2021/05/01 10:26:44;;;;;;;26.50;23.30;;;;;;;12.94;72.58;95883.38;5053082;28;20460;-61
2021/05/01 10:29:23;;;;;;;24.50;21.07;;;;;;;13.02;73.62;95885.56;5049169;28;20472;-63
2021/05/01 10:31:54;;;;;;;23.90;21.40;;;;;;;13.06;73.71;95887.44;5065148;28;20488;-67
2021/05/01 10:34:24;;;;;;;24.67;22.17;;;;;;;12.86;75.01;95881.22;5059285;28;20425;-67
2021/05/01 10:36:52;;;;;;;27.50;22.57;;;;;;;12.95;73.61;95879.69;5049317;28;20844;-64
2021/05/01 10:39:17;;;;;;;23.80;21.30;;;;;;;12.89;73.78;95883.34;5058717;28;20452;-63
2021/05/01 10:41:57;;;;;;;24.10;21.07;;;;;;;13.08;74.86;95880.09;5069324;28;20452;-63
2021/05/01 10:44:23;;;;;;;24.73;22.13;;;;;;;13.03;72.72;95866.06;5052116;28;20186;-63
2021/05/01 10:46:48;;;;;;;24.00;21.43;;;;;;;12.80;72.59;95864.56;5068091;28;21062;-63
2021/05/01 10:49:14;;;;;;;25.03;21.60;;;;;;;12.87;72.30;95869.59;5068894;28;20528;-63
2021/05/01 10:51:47;;;;;;;25.00;22.30;;;;;;;12.91;70.43;95868.06;5068014;28;20189;-63
2021/05/01 10:54:21;;;;;;;27.17;24.27;;;;;;;12.96;70.88;95870.72;5060361;28;20432;-66
2021/05/01 10:56:49;;;;;;;23.83;21.33;;;;;;;12.81;71.95;95886.44;5052416;28;20908;-63
2021/05/01 10:59:22;;;;;;;26.27;23.43;;;;;;;13.06;72.47;95871.63;5068571;28;20463;-67
2021/05/01 11:01:53;;;;;;;24.37;21.80;;;;;;;13.15;68.93;95878.03;5071470;28;20456;-67
2021/05/01 11:04:31;;;;;;;24.93;22.30;;;;;;;13.20;72.20;95877.28;5072285;28;20437;-64
2021/05/01 11:07:08;;;;;;;26.90;23.40;;;;;;;13.27;70.80;95867.28;5070872;28;20444;-68
2021/05/01 11:09:45;;;;;;;26.27;23.73;;;;;;;13.19;71.07;95862.47;5063198;28;20457;-64
2021/05/01 11:12:14;;;;;;;25.17;22.53;;;;;;;13.22;71.30;95857.53;5059103;28;20764;-64
2021/05/01 11:14:49;;;;;;;24.67;21.97;;;;;;;13.39;70.34;95852.06;5064182;28;20405;-66
2021/05/01 11:17:23;;;;;;;28.10;25.13;;;;;;;13.65;69.62;95866.19;5072228;28;20427;-63
2021/05/01 11:19:57;;;;;;;28.40;24.57;;;;;;;13.68;69.61;95873.63;5058806;28;21063;-68
2021/05/01 11:22:25;;;;;;;29.20;24.87;;;;;;;13.58;70.23;95874.34;5052491;28;20485;-63
2021/05/01 11:24:51;;;;;;;29.40;26.20;;;;;;;13.44;69.52;95862.66;5052551;28;20414;-69